Bookmark and Share
Track history (hours):
 

Zarling

More information available from US FCC via Universal Licensing System.

Last reported at 2014-Apr-16 21:26 UTC. Time now 2014-Apr-16 22:22 UTC.
Position N 46°05' W 122°56'.

Length 12 m.

Type: Pollution control. MMSI: 3699126.

NotesDate/timePositionNaut miles runAvg speedWind from/ knotsBaromVisibWave heightAir tempDewpointWater temp
2014-Apr-16 21:26N 46°05' W 122°56'20197.0
2014-Apr-16 21:20N 46°12' W 123°23'49629.9
2014-Apr-16 21:16N 45°33' W 122°42'3446.8
2014-Apr-16 20:32N 46°05' W 122°56'209160.7
2014-Apr-16 20:32N 46°12' W 123°23'49629.9
2014-Apr-16 20:28N 45°33' W 122°42'0 0.0
2014-Apr-16 19:28N 45°33' W 122°42'341636.6
2014-Apr-16 19:26N 46°05' W 122°56'20100.8
2014-Apr-16 19:14N 46°12' W 123°23'2029.2
2014-Apr-16 18:32N 46°05' W 122°56'209161.6
2014-Apr-16 18:32N 46°12' W 123°23'492694.0
2014-Apr-16 18:31N 45°33' W 122°42'0 0.0
2014-Apr-16 17:33N 45°33' W 122°42'34297.6
2014-Apr-16 17:26N 46°05' W 122°56'0 0.0
2014-Apr-16 16:32N 46°05' W 122°56'2012214.3
2014-Apr-16 16:32N 46°12' W 123°23'47556.4
2014-Apr-16 16:27N 45°34' W 122°43'3232.1
2014-Apr-16 15:26N 46°05' W 122°56'3210577.5
2014-Apr-16 15:26N 45°34' W 122°43'3234.1
2014-Apr-16 14:29N 46°05' W 122°56'32338.8
2014-Apr-16 14:24N 45°34' W 122°43'47302.1
2014-Apr-16 14:14N 46°12' W 123°23'2029.1
2014-Apr-16 13:32N 46°05' W 122°56'2024431.1
2014-Apr-16 13:32N 46°12' W 123°23'49634.4
2014-Apr-16 13:28N 45°33' W 122°42'3436.5
2014-Apr-16 12:32N 46°05' W 122°56'34435.7
2014-Apr-16 12:28N 45°33' W 122°42'49394.4
2014-Apr-16 12:20N 46°12' W 123°23'0 0.0
2014-Apr-16 11:32N 46°12' W 123°23'20400.5
2014-Apr-16 11:29N 46°05' W 122°56'0 0.0
2014-Apr-16 10:32N 46°05' W 122°56'2018321.4
2014-Apr-16 10:32N 46°12' W 123°23'2020.4
2014-Apr-16 09:32N 46°05' W 122°56'2036646.6
2014-Apr-16 09:32N 46°12' W 123°23'2020.4
2014-Apr-16 08:32N 46°05' W 122°56'20202.5
2014-Apr-16 08:26N 46°12' W 123°23'2022.7
2014-Apr-16 07:32N 46°05' W 122°56'2010470.5
2014-Apr-16 07:32N 46°12' W 123°23'0 0.0
2014-Apr-16 06:32N 46°12' W 123°23'2036642.8
2014-Apr-16 06:32N 46°05' W 122°56'0 0.0
2014-Apr-16 05:32N 46°05' W 122°56'20101.8
2014-Apr-16 05:20N 46°12' W 123°23'2018.5
2014-Apr-16 04:14N 46°05' W 122°56'3443.4
2014-Apr-16 03:28N 45°33' W 122°42'492060.3
2014-Apr-16 03:26N 46°12' W 123°23'2036646.6
2014-Apr-16 03:26N 46°05' W 122°56'2022.7
2014-Apr-16 02:32N 46°12' W 123°23'49274.0
2014-Apr-16 02:22N 45°33' W 122°42'341392.2
2014-Apr-16 02:20N 46°05' W 122°56'2022.6
2014-Apr-16 01:26N 46°12' W 123°23'20416.4
2014-Apr-16 01:23N 46°05' W 122°56'2023.9
2014-Apr-16 00:32N 46°12' W 123°23'2018323.3
2014-Apr-16 00:32N 46°05' W 122°56'2018.5
2014-Apr-15 23:26N 46°12' W 123°23'2073285.7
2014-Apr-15 23:26N 46°05' W 122°56'2022.7
2014-Apr-15 22:33N 46°12' W 123°23'20133.7
2014-Apr-15 22:23N 46°05' W 122°56'2021.5
2014-Apr-15 21:26N 46°12' W 123°23'2067.5
2014-Apr-15 21:08N 46°05' W 122°56'2034.0
2014-Apr-15 20:32N 46°12' W 123°23'20102.2
2014-Apr-15 20:21N 46°05' W 122°56'2025.4
2014-Apr-15 19:32N 46°12' W 123°23'2067.6
2014-Apr-15 19:14N 46°05' W 122°56'2029.2
2014-Apr-15 18:33N 46°12' W 123°23'20396.2
2014-Apr-15 18:29N 46°05' W 122°56'2021.5
2014-Apr-15 17:33N 46°12' W 123°23'20387.8
2014-Apr-15 17:29N 46°05' W 122°56'0 0.0
2014-Apr-15 16:29N 46°05' W 122°56'20423.6
2014-Apr-15 16:27N 46°12' W 123°23'0 0.0
2014-Apr-15 15:26N 46°12' W 123°23'20391.9
2014-Apr-15 15:23N 46°05' W 122°56'0 0.0
2014-Apr-15 14:32N 46°05' W 122°56'20208.2
2014-Apr-15 14:27N 46°12' W 123°23'0 0.0
2014-Apr-15 12:33N 46°12' W 123°23'0 0.0
2014-Apr-15 10:33N 46°12' W 123°23'208143.7
2014-Apr-15 10:33N 46°05' W 122°56'2020.4
2014-Apr-15 09:33N 46°12' W 123°23'206107.1
2014-Apr-15 09:33N 46°05' W 122°56'20 6.8
2014-Apr-15 06:33N 46°12' W 123°23'0 0.0
2014-Apr-15 05:33N 46°12' W 123°23'20 6.8
2014-Apr-15 02:33N 46°05' W 122°56'0 0.0
2014-Apr-15 01:33N 46°05' W 122°56'2020.4
2014-Apr-15 00:33N 46°12' W 123°23'0 0.0
2014-Apr-14 22:33N 46°12' W 123°23'2010.2
2014-Apr-14 20:33N 46°05' W 122°56'2010.2
2014-Apr-14 18:33N 46°12' W 123°23'204311.4
2014-Apr-14 18:33N 46°05' W 122°56'2020.5
2014-Apr-14 17:33N 46°12' W 123°23'20366.5
2014-Apr-14 17:30N 46°05' W 122°56'2021.5
2014-Apr-14 16:33N 46°12' W 123°23'2019.3
2014-Apr-14 15:30N 46°05' W 122°56'2021.5
2014-Apr-14 14:33N 46°12' W 123°23'0 0.0
2014-Apr-14 13:33N 46°12' W 123°23'49 3.2
2014-Apr-13 22:31N 45°33' W 122°42'49 2.7
2014-Apr-13 04:33N 46°12' W 123°23'20718.5
2014-Apr-13 04:31N 46°05' W 122°56'344845.0
2014-Apr-13 04:31N 45°33' W 122°42'3433.6
2014-Apr-13 03:31N 46°05' W 122°56'34346.0
2014-Apr-13 03:25N 45°33' W 122°42'49293.3
2014-Apr-13 03:15N 46°12' W 123°23'2027.6
2014-Apr-13 02:31N 46°05' W 122°56'20325.7
2014-Apr-13 02:27N 46°12' W 123°23'49636.8
2014-Apr-13 02:22N 45°33' W 122°42'4959.1
2014-Apr-13 01:33N 46°12' W 123°23'49639.1
2014-Apr-13 01:29N 45°33' W 122°42'34538.3
2014-Apr-13 01:25N 46°05' W 122°56'3435.9
2014-Apr-13 00:29N 45°33' W 122°42'34543.2
2014-Apr-13 00:25N 46°05' W 122°56'0 0.0
2014-Apr-12 23:31N 46°05' W 122°56'34884.1
2014-Apr-12 23:29N 45°33' W 122°42'3435.0
2014-Apr-12 22:31N 46°05' W 122°56'34897.1
2014-Apr-12 22:29N 45°33' W 122°42'49218.9
2014-Apr-12 22:15N 46°12' W 123°23'0 0.0
2014-Apr-12 02:33N 46°12' W 123°23'491412.2
2014-Apr-12 02:31N 45°33' W 122°42'346375.0
2014-Apr-12 02:31N 46°05' W 122°56'2021.2
2014-Apr-12 01:33N 46°12' W 123°23'491423.8
2014-Apr-12 01:31N 45°33' W 122°42'34313.8
2014-Apr-12 01:25N 46°05' W 122°56'2023.8
2014-Apr-12 00:33N 46°12' W 123°23'20475.9
2014-Apr-12 00:31N 46°05' W 122°56'3485.5
2014-Apr-12 00:07N 45°33' W 122°42'0 0.0
2014-Apr-11 23:31N 45°33' W 122°42'3433.4
2014-Apr-11 22:31N 46°05' W 122°56'2078.8
2014-Apr-11 22:15N 46°12' W 123°23'49364.1
2014-Apr-11 22:07N 45°33' W 122°42'4986.0
2014-Apr-11 21:33N 46°12' W 123°23'491471.6
2014-Apr-11 21:31N 45°33' W 122°42'343670.5
2014-Apr-11 21:31N 46°05' W 122°56'0 0.0
2014-Apr-11 20:31N 46°05' W 122°56'34363.7
2014-Apr-11 20:25N 45°33' W 122°42'34 0.8
2014-Apr-10 03:30N 46°05' W 122°56'20472.8
2014-Apr-10 03:28N 46°12' W 123°23'2016.2
2014-Apr-10 02:12N 46°05' W 122°56'0 0.0
2014-Apr-10 01:30N 46°05' W 122°56'34 8.1
2014-Apr-09 21:20N 45°33' W 122°42'34272.2
2014-Apr-09 21:12N 46°05' W 122°56'3449.7
2014-Apr-09 20:32N 45°33' W 122°42'341425.0
2014-Apr-09 20:30N 46°05' W 122°56'0 0.0
2014-Apr-09 19:30N 46°05' W 122°56'0 0.0
2014-Apr-09 18:24N 46°05' W 122°56'20472.9
2014-Apr-09 18:22N 46°12' W 123°23'2021.3
2014-Apr-09 17:24N 46°05' W 122°56'20142.3
2014-Apr-09 17:16N 46°12' W 123°23'2019.3
2014-Apr-09 16:12N 46°05' W 122°56'34266.8
2014-Apr-09 16:05N 45°33' W 122°42'0 0.0
2014-Apr-09 15:29N 45°33' W 122°42'493019.1
2014-Apr-09 15:28N 46°12' W 123°23'20355.8
2014-Apr-09 15:24N 46°05' W 122°56'3436.3
2014-Apr-09 14:29N 45°33' W 122°42'34453.6
2014-Apr-09 14:24N 46°05' W 122°56'0 0.0
2014-Apr-09 13:30N 46°05' W 122°56'341288.6
2014-Apr-09 13:29N 45°33' W 122°42'493019.4
2014-Apr-09 13:28N 46°12' W 123°23'4924.5
2014-Apr-09 11:29N 45°33' W 122°42'3411011.4
2014-Apr-09 11:29N 46°05' W 122°56'201559.3
2014-Apr-09 11:28N 46°12' W 123°23'20 1.2
2014-Apr-08 18:29N 46°05' W 122°56'3417300.7
2014-Apr-08 18:29N 45°33' W 122°42'3431.9
2014-Apr-08 17:25N 46°05' W 122°56'34721.0
2014-Apr-08 17:22N 45°33' W 122°42'0 0.0
2014-Apr-08 16:28N 45°33' W 122°42'34630.9
2014-Apr-08 16:25N 46°05' W 122°56'0 0.0
2014-Apr-08 15:31N 46°05' W 122°56'34725.3
2014-Apr-08 15:28N 45°33' W 122°42'3435.3
2014-Apr-08 14:31N 46°05' W 122°56'20377.8
2014-Apr-08 14:28N 46°12' W 123°23'49253.0
2014-Apr-08 14:16N 45°33' W 122°42'0 0.0
2014-Apr-08 13:28N 45°33' W 122°42'34219.0
2014-Apr-08 13:19N 46°05' W 122°56'20132.3
2014-Apr-08 13:10N 46°12' W 123°23'4970.2
2014-Apr-08 12:28N 45°33' W 122°42'  

Dump ship's entire track history

sailing weather and tide predictions

Zarling — WDD7883 — position and weather